createdAt,value
2022-12-16T00:00:48.624Z,77.30
2022-12-16T00:03:18.441Z,77.75
2022-12-16T00:05:46.717Z,79.78
2022-12-16T00:08:14.830Z,76.28
2022-12-16T00:10:54.915Z,76.70
2022-12-16T00:13:23.290Z,76.03
2022-12-16T00:15:51.386Z,76.05
2022-12-16T00:18:21.185Z,77.00
2022-12-16T00:20:50.001Z,75.40
2022-12-16T00:23:19.860Z,72.53
2022-12-16T00:25:47.996Z,74.00
2022-12-16T00:28:16.653Z,74.07
2022-12-16T00:30:45.226Z,74.70
2022-12-16T00:33:13.756Z,70.53
2022-12-16T00:35:45.987Z,71.18
2022-12-16T00:38:14.429Z,70.15
2022-12-16T00:40:42.740Z,70.03
2022-12-16T00:43:10.893Z,68.10
2022-12-16T00:45:39.380Z,66.38
2022-12-16T00:48:07.971Z,68.00
2022-12-16T00:50:36.232Z,64.97
2022-12-16T00:53:05.894Z,65.85
2022-12-16T00:55:34.042Z,65.85
2022-12-16T00:58:02.237Z,64.78
2022-12-16T01:00:30.416Z,66.90
2022-12-16T01:02:58.696Z,64.88
2022-12-16T01:05:27.717Z,62.70
2022-12-16T01:07:56.048Z,61.97
2022-12-16T01:10:25.888Z,61.78
2022-12-16T01:12:54.177Z,62.50
2022-12-16T01:15:23.606Z,62.05
2022-12-16T01:17:51.766Z,61.33
2022-12-16T01:20:20.091Z,57.92
2022-12-16T01:22:48.180Z,59.83
2022-12-16T01:25:16.659Z,58.17
2022-12-16T01:27:46.249Z,61.63
2022-12-16T01:30:14.796Z,59.25
2022-12-16T01:32:43.039Z,57.10
2022-12-16T01:35:43.863Z,55.40
2022-12-16T01:37:59.530Z,55.35
2022-12-16T01:40:27.852Z,54.58
2022-12-16T01:42:57.437Z,51.55
2022-12-16T01:45:33.737Z,52.55
2022-12-16T01:48:04.233Z,55.60
2022-12-16T01:50:32.672Z,52.83
2022-12-16T01:53:01.766Z,51.13
2022-12-16T01:55:31.341Z,53.13
2022-12-16T01:58:02.352Z,50.38
2022-12-16T02:00:30.461Z,49.67
2022-12-16T02:02:58.991Z,50.15
2022-12-16T02:05:27.153Z,47.08
2022-12-16T02:07:57.883Z,48.67
2022-12-16T02:10:28.955Z,48.97
2022-12-16T02:12:58.928Z,48.85
2022-12-16T02:15:33.421Z,48.78
2022-12-16T02:18:04.864Z,47.75
2022-12-16T02:21:13.520Z,47.25
2022-12-16T02:24:03.105Z,47.67
2022-12-16T02:26:51.712Z,46.33
2022-12-16T02:29:32.897Z,46.15
2022-12-16T02:32:05.140Z,45.58
2022-12-16T02:34:36.266Z,44.03
2022-12-16T02:37:10.633Z,44.90
2022-12-16T02:39:39.368Z,41.58
2022-12-16T02:42:11.588Z,43.95
2022-12-16T02:44:43.223Z,44.97
2022-12-16T02:47:13.004Z,41.78
2022-12-16T02:49:47.410Z,41.97
2022-12-16T02:52:15.630Z,41.47
2022-12-16T02:54:44.370Z,42.53
2022-12-16T02:57:18.844Z,39.85
2022-12-16T02:59:51.091Z,40.10
2022-12-16T03:02:23.837Z,40.15
2022-12-16T03:04:53.264Z,39.88
2022-12-16T03:07:22.160Z,40.88
2022-12-16T03:09:50.392Z,40.83
2022-12-16T03:12:19.420Z,38.92
2022-12-16T03:14:49.236Z,41.95
2022-12-16T03:17:17.384Z,40.42
2022-12-16T03:19:48.855Z,40.80
2022-12-16T03:22:18.523Z,37.88
2022-12-16T03:24:46.688Z,38.55
2022-12-16T03:27:18.528Z,36.53
2022-12-16T03:29:55.029Z,38.05
2022-12-16T03:32:24.701Z,38.60
2022-12-16T03:34:55.373Z,37.65
2022-12-16T03:37:24.059Z,37.10
2022-12-16T03:39:54.337Z,36.25
2022-12-16T03:42:22.588Z,34.45
2022-12-16T03:44:50.706Z,35.60
2022-12-16T03:47:23.680Z,34.05
2022-12-16T03:49:52.182Z,35.22
2022-12-16T03:52:21.734Z,34.55
2022-12-16T03:54:49.955Z,32.35
2022-12-16T03:57:18.062Z,34.53
2022-12-16T03:59:46.248Z,32.80
2022-12-16T04:02:14.557Z,33.17
2022-12-16T04:04:42.901Z,33.83
2022-12-16T04:07:24.774Z,33.22
2022-12-16T04:09:54.550Z,32.78
2022-12-16T04:12:40.321Z,31.48
2022-12-16T04:15:26.065Z,32.40
2022-12-16T04:18:11.625Z,32.90
2022-12-16T04:20:58.619Z,31.63
2022-12-16T04:23:44.832Z,29.45
2022-12-16T04:26:14.558Z,30.67
2022-12-16T04:28:42.691Z,32.65
2022-12-16T04:31:10.807Z,32.33
2022-12-16T04:33:52.877Z,31.05
2022-12-16T04:36:38.592Z,31.10
2022-12-16T04:39:24.437Z,29.90
2022-12-16T04:42:12.301Z,30.42
2022-12-16T04:44:58.117Z,28.67
2022-12-16T04:47:43.612Z,29.50
2022-12-16T04:50:28.796Z,29.02
2022-12-16T04:53:14.268Z,28.88
2022-12-16T04:56:04.028Z,28.77
2022-12-16T04:58:51.653Z,26.98
2022-12-16T05:01:37.415Z,28.83
2022-12-16T05:04:23.188Z,28.35
2022-12-16T05:07:08.395Z,28.55
2022-12-16T05:09:53.826Z,28.55
2022-12-16T05:12:39.203Z,27.77
2022-12-16T05:15:27.106Z,29.08
2022-12-16T05:18:13.044Z,26.30
2022-12-16T05:20:58.252Z,26.85
2022-12-16T05:23:44.124Z,25.70
2022-12-16T05:26:29.483Z,27.05
2022-12-16T05:29:14.928Z,26.77
2022-12-16T05:32:02.075Z,25.77
2022-12-16T05:34:56.056Z,27.63
2022-12-16T05:37:43.992Z,26.50
2022-12-16T05:40:29.841Z,28.00
2022-12-16T05:43:17.048Z,25.90
2022-12-16T05:46:02.834Z,25.48
2022-12-16T05:48:50.123Z,25.10
2022-12-16T05:51:35.284Z,24.35
2022-12-16T05:54:20.373Z,25.38
2022-12-16T05:57:05.564Z,25.23
2022-12-16T05:59:51.063Z,24.58
2022-12-16T06:02:36.602Z,24.80
2022-12-16T06:05:24.339Z,24.13
2022-12-16T06:08:10.114Z,24.50
2022-12-16T06:10:55.389Z,24.15
2022-12-16T06:13:41.161Z,23.92
2022-12-16T06:16:27.037Z,22.02
2022-12-16T06:19:12.725Z,26.02
2022-12-16T06:21:59.819Z,24.35
2022-12-16T06:24:45.033Z,24.90
2022-12-16T06:27:30.677Z,22.67
2022-12-16T06:30:16.137Z,22.88
2022-12-16T06:33:01.763Z,22.95
2022-12-16T06:35:47.192Z,23.98
2022-12-16T06:38:34.344Z,23.98
2022-12-16T06:41:19.939Z,22.70
2022-12-16T06:44:05.357Z,22.38
2022-12-16T06:46:50.614Z,23.27
2022-12-16T06:49:36.052Z,23.05
2022-12-16T06:52:21.825Z,22.02
2022-12-16T06:55:09.139Z,23.05
2022-12-16T06:57:54.551Z,22.48
2022-12-16T07:00:40.360Z,22.02
2022-12-16T07:03:26.060Z,23.08
2022-12-16T07:06:08.317Z,22.38
2022-12-16T07:08:53.801Z,22.05
2022-12-16T07:11:40.870Z,21.25
2022-12-16T07:14:37.777Z,21.88
2022-12-16T07:17:23.467Z,21.73
2022-12-16T07:20:17.371Z,21.77
2022-12-16T07:23:11.799Z,20.33
2022-12-16T07:25:55.229Z,21.98
2022-12-16T07:28:42.461Z,21.80
2022-12-16T07:31:30.154Z,23.48
2022-12-16T07:34:15.895Z,20.58
2022-12-16T07:37:01.353Z,21.92
2022-12-16T07:39:51.369Z,26.02
2022-12-16T07:42:39.920Z,22.45
2022-12-16T07:45:27.489Z,20.92
2022-12-16T07:48:13.205Z,22.88
2022-12-16T07:50:58.757Z,29.42
2022-12-16T07:53:44.111Z,26.23
2022-12-16T07:56:29.824Z,25.30
2022-12-16T07:59:15.515Z,24.55
2022-12-16T08:02:02.580Z,26.63
2022-12-16T08:04:48.325Z,25.65
2022-12-16T08:07:33.954Z,27.30
2022-12-16T08:10:20.772Z,27.77
2022-12-16T08:13:06.017Z,29.13
2022-12-16T08:15:51.719Z,37.25
2022-12-16T08:18:39.955Z,41.22
2022-12-16T08:21:25.296Z,35.00
2022-12-16T08:24:25.555Z,45.30
2022-12-16T08:27:10.889Z,44.30
2022-12-16T08:29:56.405Z,41.33
2022-12-16T08:32:42.145Z,43.58
2022-12-16T08:35:28.915Z,48.60
2022-12-16T08:38:14.841Z,52.13
2022-12-16T08:41:00.662Z,51.58
2022-12-16T08:43:46.380Z,53.72
2022-12-16T08:46:31.931Z,58.83
2022-12-16T08:49:17.686Z,58.22
2022-12-16T08:52:04.901Z,60.30
2022-12-16T08:54:50.245Z,59.70
2022-12-16T08:57:35.809Z,61.80
2022-12-16T09:00:22.253Z,61.13
2022-12-16T09:03:11.864Z,60.72
2022-12-16T09:05:57.424Z,69.03
2022-12-16T09:08:44.405Z,74.53
2022-12-16T09:11:29.816Z,69.53
2022-12-16T09:14:15.593Z,76.65
2022-12-16T09:17:01.011Z,89.80
2022-12-16T09:19:46.542Z,80.47
2022-12-16T09:22:31.938Z,80.30
2022-12-16T09:25:19.129Z,109.93
2022-12-16T09:28:07.840Z,137.30
2022-12-16T09:30:54.280Z,145.48
2022-12-16T09:33:41.495Z,153.60
2022-12-16T09:36:27.317Z,142.93
2022-12-16T09:39:13.209Z,155.75
2022-12-16T09:42:10.249Z,163.90
2022-12-16T09:45:06.065Z,145.93
2022-12-16T09:47:54.065Z,167.80
2022-12-16T09:50:41.366Z,172.38
2022-12-16T09:53:30.231Z,152.43
2022-12-16T09:56:16.155Z,148.07
2022-12-16T09:59:06.500Z,171.90
2022-12-16T10:02:04.712Z,182.70
2022-12-16T10:04:50.633Z,185.82
2022-12-16T10:07:36.924Z,203.50
2022-12-16T10:10:30.366Z,195.55
2022-12-16T10:13:18.359Z,190.23
2022-12-16T10:16:07.811Z,189.90
2022-12-16T10:19:10.741Z,187.70
2022-12-16T10:22:01.303Z,185.10
2022-12-16T10:24:52.641Z,181.20
2022-12-16T10:27:42.597Z,184.75
2022-12-16T10:30:31.181Z,179.93
2022-12-16T10:33:18.644Z,177.98
2022-12-16T10:36:05.996Z,167.50
2022-12-16T10:38:54.905Z,170.65
2022-12-16T10:41:42.714Z,134.48
2022-12-16T10:44:34.778Z,123.10
2022-12-16T10:47:20.479Z,127.50
2022-12-16T10:50:07.277Z,126.05
2022-12-16T10:52:53.175Z,127.93
2022-12-16T10:55:43.800Z,130.93
2022-12-16T10:58:35.865Z,131.65
2022-12-16T11:01:21.775Z,129.05
2022-12-16T11:04:07.531Z,129.65
2022-12-16T11:06:57.435Z,137.43
2022-12-16T11:09:45.804Z,139.88
2022-12-16T11:12:45.077Z,148.68
2022-12-16T11:15:44.505Z,142.07
2022-12-16T11:18:31.594Z,148.30
2022-12-16T11:21:25.541Z,140.48
2022-12-16T11:24:25.088Z,138.10
2022-12-16T11:27:13.934Z,141.30
2022-12-16T11:30:08.708Z,138.93
2022-12-16T11:32:54.714Z,140.68
2022-12-16T11:35:43.493Z,133.75
2022-12-16T11:38:32.798Z,135.45
2022-12-16T11:41:20.014Z,133.30
2022-12-16T11:44:06.014Z,129.68
2022-12-16T11:46:51.374Z,128.98
2022-12-16T11:49:41.809Z,129.88
2022-12-16T11:52:36.939Z,124.95
2022-12-16T11:56:03.699Z,124.40
2022-12-16T11:58:42.735Z,124.38
2022-12-16T12:01:30.890Z,122.78
2022-12-16T12:04:16.455Z,118.93
2022-12-16T12:07:19.644Z,115.72
2022-12-16T12:10:08.535Z,116.68
2022-12-16T12:12:56.957Z,113.22
2022-12-16T12:15:46.115Z,117.82
2022-12-16T12:18:36.026Z,114.80
2022-12-16T12:21:24.669Z,119.45
2022-12-16T12:24:12.904Z,104.70
2022-12-16T12:27:01.618Z,120.00
2022-12-16T12:29:50.923Z,117.13
2022-12-16T12:32:44.416Z,119.00
2022-12-16T12:35:39.484Z,123.10
2022-12-16T12:38:27.700Z,116.90
2022-12-16T12:41:16.103Z,116.65
2022-12-16T12:44:06.414Z,113.25
2022-12-16T12:46:53.294Z,119.88
2022-12-16T12:49:42.218Z,121.68
2022-12-16T12:52:32.493Z,125.05
2022-12-16T12:55:20.494Z,122.88
2022-12-16T12:58:06.641Z,122.00
2022-12-16T13:00:54.822Z,126.85
2022-12-16T13:03:46.769Z,132.30
2022-12-16T13:06:34.307Z,126.30
2022-12-16T13:09:20.087Z,128.32
2022-12-16T13:12:40.733Z,130.25
2022-12-16T13:15:26.579Z,122.65
2022-12-16T13:18:45.231Z,124.03
2022-12-16T13:22:10.130Z,123.57
2022-12-16T13:25:02.848Z,119.20
2022-12-16T13:28:03.073Z,120.20
2022-12-16T13:30:48.600Z,120.18
2022-12-16T13:33:45.208Z,117.45
2022-12-16T13:36:31.436Z,116.95
2022-12-16T13:39:38.423Z,124.72
2022-12-16T13:42:25.430Z,128.60
2022-12-16T13:45:17.345Z,150.90
2022-12-16T13:48:19.710Z,191.55
2022-12-16T13:51:05.683Z,194.80
2022-12-16T13:53:52.073Z,190.20
2022-12-16T13:56:39.851Z,177.00
2022-12-16T13:59:30.415Z,168.23
2022-12-16T14:02:16.021Z,173.95
2022-12-16T14:05:02.814Z,166.05
2022-12-16T14:07:49.630Z,157.48
2022-12-16T14:10:53.411Z,155.60
2022-12-16T14:13:41.036Z,154.50
2022-12-16T14:16:31.165Z,151.55
2022-12-16T14:19:24.444Z,151.07
2022-12-16T14:22:13.259Z,149.68
2022-12-16T14:24:58.702Z,145.88
2022-12-16T14:27:44.008Z,141.13
2022-12-16T14:30:35.862Z,146.10
2022-12-16T14:33:36.049Z,139.38
2022-12-16T14:36:21.505Z,135.43
2022-12-16T14:39:07.888Z,135.18
2022-12-16T14:41:53.454Z,131.70
2022-12-16T14:44:39.822Z,129.10
2022-12-16T14:47:38.381Z,126.72
2022-12-16T14:50:36.385Z,116.10
2022-12-16T14:53:32.331Z,116.18
2022-12-16T14:56:52.161Z,114.45
2022-12-16T14:59:38.391Z,119.78
2022-12-16T15:02:33.182Z,113.18
2022-12-16T15:05:18.781Z,117.95
2022-12-16T15:08:05.819Z,113.93
2022-12-16T15:10:51.703Z,117.57
2022-12-16T15:13:37.672Z,125.43
2022-12-16T15:16:23.899Z,121.30
2022-12-16T15:19:21.426Z,123.28
2022-12-16T15:22:09.300Z,121.45
2022-12-16T15:24:56.624Z,120.13
2022-12-16T15:27:43.463Z,120.18
2022-12-16T15:31:05.627Z,117.80
2022-12-16T15:33:52.133Z,120.03
2022-12-16T15:36:42.813Z,117.80
2022-12-16T15:39:26.478Z,118.25
2022-12-16T15:42:13.622Z,113.30
2022-12-16T15:45:04.180Z,114.95
2022-12-16T15:47:51.849Z,115.13
2022-12-16T15:50:38.067Z,111.97
2022-12-16T15:53:48.809Z,112.85
2022-12-16T15:56:38.608Z,107.20
2022-12-16T15:59:40.852Z,121.35
2022-12-16T16:02:36.115Z,122.93
2022-12-16T16:05:29.208Z,121.05
2022-12-16T16:08:13.817Z,134.07
2022-12-16T16:11:00.853Z,127.65
2022-12-16T16:13:46.346Z,127.07
2022-12-16T16:16:33.302Z,120.78
2022-12-16T16:19:27.678Z,119.95
2022-12-16T16:22:13.103Z,124.75
2022-12-16T16:24:58.396Z,121.20
2022-12-16T16:27:43.905Z,121.00
2022-12-16T16:30:29.880Z,126.78
2022-12-16T16:33:16.678Z,140.45
2022-12-16T16:36:02.179Z,137.32
2022-12-16T16:38:47.621Z,131.93
2022-12-16T16:41:33.713Z,136.15
2022-12-16T16:44:20.150Z,130.77
2022-12-16T16:47:05.769Z,130.40
2022-12-16T16:49:54.031Z,141.98
2022-12-16T16:52:40.976Z,128.55
2022-12-16T16:55:27.034Z,126.75
2022-12-16T16:58:12.646Z,123.15
2022-12-16T17:00:58.596Z,123.07
2022-12-16T17:03:49.777Z,126.13
2022-12-16T17:06:36.989Z,130.80
2022-12-16T17:09:23.081Z,124.43
2022-12-16T17:12:08.432Z,121.53
2022-12-16T17:14:53.624Z,122.13
2022-12-16T17:17:47.673Z,116.18
2022-12-16T17:20:34.059Z,120.10
2022-12-16T17:23:32.662Z,109.68
2022-12-16T17:26:18.485Z,110.30
2022-12-16T17:29:04.045Z,105.38
2022-12-16T17:31:49.531Z,108.22
2022-12-16T17:34:35.185Z,110.75
2022-12-16T17:37:20.880Z,110.55
2022-12-16T17:40:08.087Z,106.55
2022-12-16T17:42:53.819Z,104.85
2022-12-16T17:45:39.289Z,106.28
2022-12-16T17:48:25.023Z,101.97
2022-12-16T17:51:10.399Z,103.35
2022-12-16T17:54:00.805Z,100.18
2022-12-16T17:56:50.277Z,100.78
2022-12-16T17:59:35.928Z,100.30
2022-12-16T18:02:21.393Z,96.78
2022-12-16T18:05:07.170Z,104.03
2022-12-16T18:07:52.557Z,101.05
2022-12-16T18:10:38.430Z,105.95
2022-12-16T18:13:25.593Z,101.65
2022-12-16T18:16:11.412Z,99.82
2022-12-16T18:18:56.916Z,98.43
2022-12-16T18:21:42.904Z,101.40
2022-12-16T18:24:29.012Z,94.70
2022-12-16T18:27:14.477Z,88.03
2022-12-16T18:30:01.288Z,87.88
2022-12-16T18:32:46.777Z,89.70
2022-12-16T18:35:32.632Z,82.88
2022-12-16T18:38:17.810Z,81.78
2022-12-16T18:41:03.189Z,104.85
2022-12-16T18:43:49.076Z,104.25
2022-12-16T18:46:36.334Z,110.63
2022-12-16T18:49:21.217Z,105.60
2022-12-16T18:52:06.946Z,110.20
2022-12-16T18:54:52.792Z,109.57
2022-12-16T18:57:41.379Z,99.82
2022-12-16T19:00:27.995Z,100.88
2022-12-16T19:03:15.264Z,98.10
2022-12-16T19:06:01.286Z,95.55
2022-12-16T19:08:44.280Z,96.57
2022-12-16T19:11:29.840Z,103.47
2022-12-16T19:14:15.189Z,91.88
2022-12-16T19:17:00.618Z,99.68
2022-12-16T19:19:47.486Z,90.13
2022-12-16T19:22:33.044Z,105.10
2022-12-16T19:25:18.556Z,96.53
2022-12-16T19:28:03.772Z,94.65
2022-12-16T19:30:49.410Z,95.57
2022-12-16T19:33:34.727Z,89.57
2022-12-16T19:36:26.819Z,94.57
2022-12-16T19:39:12.481Z,88.53
2022-12-16T19:41:58.197Z,86.93
2022-12-16T19:44:43.562Z,94.20
2022-12-16T19:47:29.481Z,92.20
2022-12-16T19:50:14.951Z,95.13
2022-12-16T19:53:02.111Z,93.60
2022-12-16T19:55:47.474Z,91.65
2022-12-16T19:58:38.130Z,88.45
2022-12-16T20:01:27.844Z,86.97
2022-12-16T20:04:14.049Z,87.32
2022-12-16T20:06:59.509Z,88.05
2022-12-16T20:09:46.466Z,90.25
2022-12-16T20:12:31.881Z,86.55
2022-12-16T20:15:17.216Z,90.75
2022-12-16T20:18:04.046Z,93.13
2022-12-16T20:20:49.502Z,91.70
2022-12-16T20:23:40.290Z,95.28
2022-12-16T20:26:27.436Z,96.97
2022-12-16T20:29:12.649Z,93.55
2022-12-16T20:31:58.094Z,89.55
2022-12-16T20:34:43.283Z,91.35
2022-12-16T20:37:29.197Z,89.40
2022-12-16T20:40:26.516Z,91.75
2022-12-16T20:43:13.755Z,87.38
2022-12-16T20:45:59.475Z,89.05
2022-12-16T20:48:44.665Z,75.07
2022-12-16T20:51:30.066Z,83.47
2022-12-16T20:54:15.423Z,81.80
2022-12-16T20:57:00.826Z,92.70
2022-12-16T20:59:47.799Z,100.55
2022-12-16T21:02:36.144Z,99.63
2022-12-16T21:05:22.204Z,93.80
2022-12-16T21:08:08.100Z,95.18
2022-12-16T21:10:56.299Z,95.35
2022-12-16T21:13:41.917Z,94.85
2022-12-16T21:16:28.889Z,92.13
2022-12-16T21:19:15.153Z,92.63
2022-12-16T21:22:00.668Z,88.68
2022-12-16T21:24:46.081Z,90.65
2022-12-16T21:27:31.664Z,94.28
2022-12-16T21:30:17.475Z,94.45
2022-12-16T21:33:04.305Z,96.40
2022-12-16T21:35:50.116Z,96.65
2022-12-16T21:38:35.559Z,95.45
2022-12-16T21:41:20.941Z,91.30
2022-12-16T21:44:06.597Z,96.97
2022-12-16T21:46:51.967Z,89.65
2022-12-16T21:49:39.105Z,94.32
2022-12-16T21:52:24.765Z,91.50
2022-12-16T21:55:10.157Z,94.30
2022-12-16T21:57:55.505Z,92.43
2022-12-16T22:00:42.324Z,96.53
2022-12-16T22:03:27.738Z,90.75
2022-12-16T22:06:16.808Z,92.07
2022-12-16T22:09:03.004Z,91.50
2022-12-16T22:11:48.692Z,91.60
2022-12-16T22:14:33.954Z,96.70
2022-12-16T22:17:19.920Z,89.93
2022-12-16T22:20:17.060Z,91.00
2022-12-16T22:23:04.145Z,96.30
2022-12-16T22:25:49.671Z,92.53
2022-12-16T22:28:35.339Z,90.05
2022-12-16T22:31:21.085Z,95.20
2022-12-16T22:34:07.303Z,95.13
2022-12-16T22:36:52.647Z,88.10
2022-12-16T22:42:48.464Z,88.72
2022-12-16T22:45:34.137Z,89.03
2022-12-16T22:48:19.346Z,89.05
2022-12-16T22:51:04.713Z,88.20
2022-12-16T22:53:49.952Z,89.40
2022-12-16T22:56:36.272Z,90.55
2022-12-16T22:59:21.889Z,86.03
2022-12-16T23:02:07.453Z,86.53
2022-12-16T23:04:53.239Z,85.03
2022-12-16T23:07:39.769Z,87.82
2022-12-16T23:10:26.499Z,86.50
2022-12-16T23:13:13.422Z,83.35
2022-12-16T23:15:58.762Z,88.25
2022-12-16T23:18:44.188Z,85.47
2022-12-16T23:21:33.449Z,80.68
2022-12-16T23:24:18.937Z,84.07
2022-12-16T23:27:04.473Z,79.45
2022-12-16T23:29:51.653Z,80.53
2022-12-16T23:32:30.622Z,92.65
2022-12-16T23:32:37.832Z,84.18
2022-12-16T23:35:24.210Z,80.78
2022-12-16T23:38:09.576Z,76.97
2022-12-16T23:40:54.904Z,83.85
2022-12-16T23:43:42.804Z,78.50
2022-12-16T23:46:29.991Z,77.55
2022-12-16T23:49:15.727Z,77.57
2022-12-16T23:52:01.148Z,76.45
2022-12-16T23:54:46.591Z,76.70
2022-12-16T23:57:32.156Z,73.28
